createdAt,value
2022-11-14T00:01:13.222Z,5.18
2022-11-14T00:03:40.013Z,5.21
2022-11-14T00:06:07.752Z,5.15
2022-11-14T00:08:34.574Z,5.13
2022-11-14T00:11:01.121Z,5.19
2022-11-14T00:13:27.608Z,5.09
2022-11-14T00:15:54.421Z,5.05
2022-11-14T00:18:21.047Z,4.99
2022-11-14T00:20:52.311Z,4.91
2022-11-14T00:23:20.272Z,4.94
2022-11-14T00:25:47.428Z,4.96
2022-11-14T00:28:14.538Z,4.96
2022-11-14T00:30:41.186Z,5.07
2022-11-14T00:33:07.750Z,5.15
2022-11-14T00:35:34.197Z,5.20
2022-11-14T00:38:00.851Z,5.15
2022-11-14T00:40:27.320Z,5.19
2022-11-14T00:42:54.374Z,5.23
2022-11-14T00:45:24.167Z,5.28
2022-11-14T00:47:50.672Z,5.31
2022-11-14T00:50:20.340Z,5.29
2022-11-14T00:52:46.872Z,5.32
2022-11-14T00:55:13.366Z,5.31
2022-11-14T00:57:39.873Z,5.17
2022-11-14T01:00:09.945Z,5.17
2022-11-14T01:02:36.475Z,5.14
2022-11-14T01:05:03.028Z,5.06
2022-11-14T01:07:32.441Z,4.96
2022-11-14T01:09:58.895Z,4.85
2022-11-14T01:12:25.444Z,4.84
2022-11-14T01:14:51.881Z,4.77
2022-11-14T01:17:18.332Z,4.72
2022-11-14T01:19:44.812Z,4.72
2022-11-14T01:22:11.287Z,4.64
2022-11-14T01:24:37.795Z,4.69
2022-11-14T01:27:04.321Z,4.84
2022-11-14T01:29:30.903Z,4.96
2022-11-14T01:31:57.395Z,5.02
2022-11-14T01:34:24.040Z,5.06
2022-11-14T01:36:50.528Z,4.97
2022-11-14T01:39:17.162Z,4.90
2022-11-14T01:41:43.921Z,4.88
2022-11-14T01:44:16.494Z,4.98
2022-11-14T01:46:48.296Z,4.90
2022-11-14T01:49:21.835Z,4.82
2022-11-14T01:52:02.295Z,4.83
2022-11-14T01:54:33.103Z,4.84
2022-11-14T01:57:02.064Z,4.81
2022-11-14T01:59:39.924Z,4.75
2022-11-14T02:02:13.697Z,4.75
2022-11-14T02:04:45.040Z,4.69
2022-11-14T02:07:12.781Z,4.84
2022-11-14T02:09:42.681Z,4.93
2022-11-14T02:12:14.564Z,5.03
2022-11-14T02:14:45.240Z,4.90
2022-11-14T02:17:30.622Z,4.81
2022-11-14T02:20:05.280Z,4.78
2022-11-14T02:22:32.492Z,4.72
2022-11-14T02:24:58.955Z,4.60
2022-11-14T02:27:25.464Z,4.60
2022-11-14T02:29:51.968Z,4.71
2022-11-14T02:32:18.621Z,4.67
2022-11-14T02:34:45.120Z,4.66
2022-11-14T02:37:11.693Z,4.64
2022-11-14T02:39:38.941Z,4.69
2022-11-14T02:42:05.811Z,4.70
2022-11-14T02:44:32.356Z,4.76
2022-11-14T02:46:58.817Z,4.61
2022-11-14T02:49:25.305Z,4.65
2022-11-14T02:51:51.752Z,4.74
2022-11-14T02:54:18.260Z,4.68
2022-11-14T02:56:44.713Z,4.65
2022-11-14T02:59:11.205Z,4.63
2022-11-14T03:01:37.743Z,4.64
2022-11-14T03:04:04.428Z,4.65
2022-11-14T03:06:31.084Z,4.65
2022-11-14T03:08:57.996Z,4.64
2022-11-14T03:11:24.473Z,4.63
2022-11-14T03:13:50.961Z,4.57
2022-11-14T03:16:17.479Z,4.54
2022-11-14T03:18:44.019Z,4.51
2022-11-14T03:21:19.421Z,4.40
2022-11-14T03:23:46.769Z,4.53
2022-11-14T03:26:15.046Z,4.43
2022-11-14T03:28:42.380Z,4.37
2022-11-14T03:31:11.513Z,4.40
2022-11-14T03:33:38.172Z,4.34
2022-11-14T03:36:05.783Z,4.45
2022-11-14T03:38:32.956Z,4.40
2022-11-14T03:41:00.162Z,4.43
2022-11-14T03:43:29.883Z,4.43
2022-11-14T03:45:58.803Z,4.30
2022-11-14T03:48:25.250Z,4.42
2022-11-14T03:50:51.782Z,4.49
2022-11-14T03:53:18.248Z,4.57
2022-11-14T03:55:46.756Z,4.64
2022-11-14T03:58:13.221Z,4.70
2022-11-14T04:00:39.981Z,4.60
2022-11-14T04:03:06.537Z,4.45
2022-11-14T04:05:33.226Z,4.36
2022-11-14T04:07:59.837Z,4.44
2022-11-14T04:10:26.315Z,4.34
2022-11-14T04:12:53.998Z,4.19
2022-11-14T04:15:21.229Z,4.22
2022-11-14T04:17:47.802Z,4.14
2022-11-14T04:20:15.227Z,4.16
2022-11-14T04:22:41.818Z,4.25
2022-11-14T04:25:09.211Z,4.09
2022-11-14T04:27:35.844Z,4.06
2022-11-14T04:30:02.768Z,4.03
2022-11-14T04:32:29.319Z,4.08
2022-11-14T04:34:55.786Z,3.98
2022-11-14T04:37:22.683Z,3.91
2022-11-14T04:39:49.137Z,3.95
2022-11-14T04:42:15.637Z,3.88
2022-11-14T04:44:42.217Z,3.98
2022-11-14T04:47:08.688Z,4.02
2022-11-14T04:49:35.319Z,4.01
2022-11-14T04:52:01.953Z,3.98
2022-11-14T04:54:28.629Z,3.79
2022-11-14T04:56:55.066Z,3.74
2022-11-14T04:59:21.551Z,3.80
2022-11-14T05:01:48.162Z,3.89
2022-11-14T05:04:14.889Z,4.04
2022-11-14T05:06:41.396Z,4.02
2022-11-14T05:09:08.043Z,3.95
2022-11-14T05:11:34.555Z,3.88
2022-11-14T05:14:01.014Z,4.01
2022-11-14T05:16:27.525Z,4.04
2022-11-14T05:18:54.912Z,4.07
2022-11-14T05:21:21.936Z,3.98
2022-11-14T05:23:48.466Z,3.97
2022-11-14T05:26:17.495Z,3.88
2022-11-14T05:28:44.011Z,3.79
2022-11-14T05:31:13.679Z,3.77
2022-11-14T05:33:40.328Z,3.77
2022-11-14T05:36:12.003Z,3.90
2022-11-14T05:38:38.586Z,3.89
2022-11-14T05:41:06.738Z,3.90
2022-11-14T05:43:33.529Z,4.01
2022-11-14T05:46:01.394Z,3.91
2022-11-14T05:48:28.672Z,3.80
2022-11-14T05:50:59.328Z,3.78
2022-11-14T05:53:27.643Z,3.78
2022-11-14T05:55:54.335Z,3.79
2022-11-14T05:58:21.708Z,3.86
2022-11-14T06:00:53.668Z,3.91
2022-11-14T06:03:20.996Z,3.86
2022-11-14T06:05:47.439Z,3.87
2022-11-14T06:08:13.944Z,3.95
2022-11-14T06:10:40.428Z,3.93
2022-11-14T06:13:06.899Z,4.08
2022-11-14T06:15:33.329Z,4.06
2022-11-14T06:17:59.867Z,3.98
2022-11-14T06:20:26.343Z,3.96
2022-11-14T06:22:55.037Z,3.96
2022-11-14T06:25:21.558Z,3.99
2022-11-14T06:27:48.051Z,4.10
2022-11-14T06:30:14.618Z,4.04
2022-11-14T06:32:41.128Z,4.05
2022-11-14T06:35:08.447Z,4.04
2022-11-14T06:37:37.853Z,4.16
2022-11-14T06:40:04.710Z,4.01
2022-11-14T06:42:31.239Z,3.95
2022-11-14T06:44:57.677Z,3.96
2022-11-14T06:47:24.224Z,4.02
2022-11-14T06:49:50.664Z,4.03
2022-11-14T06:52:17.101Z,3.93
2022-11-14T06:54:43.589Z,3.89
2022-11-14T06:57:10.062Z,3.85
2022-11-14T06:59:36.629Z,3.83
2022-11-14T07:02:03.179Z,3.79
2022-11-14T07:04:29.628Z,3.75
2022-11-14T07:06:56.139Z,3.90
2022-11-14T07:09:22.722Z,4.06
2022-11-14T07:11:49.178Z,4.02
2022-11-14T07:14:15.654Z,4.01
2022-11-14T07:16:42.122Z,3.94
2022-11-14T07:19:11.558Z,4.00
2022-11-14T07:21:38.633Z,4.03
2022-11-14T07:24:05.636Z,3.89
2022-11-14T07:26:32.089Z,3.78
2022-11-14T07:29:02.375Z,3.74
2022-11-14T07:31:29.710Z,3.72
2022-11-14T07:33:56.248Z,3.80
2022-11-14T07:36:23.700Z,3.87
2022-11-14T07:38:50.177Z,3.90
2022-11-14T07:41:17.460Z,4.01
2022-11-14T07:43:44.232Z,4.01
2022-11-14T07:46:14.145Z,4.01
2022-11-14T07:48:40.690Z,4.17
2022-11-14T07:51:09.892Z,4.33
2022-11-14T07:53:36.676Z,4.38
2022-11-14T07:56:06.708Z,4.22
2022-11-14T07:58:35.976Z,4.29
2022-11-14T08:01:04.019Z,4.33
2022-11-14T08:03:34.764Z,4.25
2022-11-14T08:06:09.538Z,4.16
2022-11-14T08:08:36.584Z,4.13
2022-11-14T08:11:03.378Z,4.10
2022-11-14T08:13:33.216Z,3.83
2022-11-14T08:16:10.841Z,3.87
2022-11-14T08:18:39.277Z,3.92
2022-11-14T08:21:06.456Z,4.00
2022-11-14T08:23:33.018Z,3.91
2022-11-14T08:26:00.058Z,3.97
2022-11-14T08:28:26.958Z,3.92
2022-11-14T08:30:59.471Z,3.98
2022-11-14T08:33:26.000Z,4.04
2022-11-14T08:35:52.505Z,4.11
2022-11-14T08:38:18.982Z,4.18
2022-11-14T08:40:45.443Z,4.26
2022-11-14T08:43:12.031Z,4.25
2022-11-14T08:45:38.548Z,4.40
2022-11-14T08:48:05.788Z,4.30
2022-11-14T08:50:32.466Z,4.30
2022-11-14T08:52:59.023Z,4.37
2022-11-14T08:55:25.585Z,4.46
2022-11-14T08:57:53.746Z,4.45
2022-11-14T09:00:20.701Z,4.45
2022-11-14T09:02:47.299Z,4.38
2022-11-14T09:05:13.869Z,4.45
2022-11-14T09:07:40.380Z,4.35
2022-11-14T09:10:07.898Z,4.33
2022-11-14T09:12:34.467Z,4.30
2022-11-14T09:15:01.011Z,4.21
2022-11-14T09:17:27.564Z,4.19
2022-11-14T09:19:54.298Z,4.28
2022-11-14T09:22:20.828Z,4.42
2022-11-14T09:24:47.788Z,4.47
2022-11-14T09:27:17.864Z,4.50
2022-11-14T09:29:44.424Z,4.46
2022-11-14T09:32:10.910Z,4.51
2022-11-14T09:34:37.510Z,4.62
2022-11-14T09:37:04.061Z,4.68
2022-11-14T09:39:30.551Z,4.77
2022-11-14T09:42:23.026Z,4.93
2022-11-14T09:45:02.409Z,4.97
2022-11-14T09:48:00.920Z,4.93
2022-11-14T09:50:33.581Z,4.83
2022-11-14T09:53:19.483Z,4.88
2022-11-14T09:55:45.932Z,4.82
2022-11-14T09:58:19.788Z,4.85
2022-11-14T10:01:47.908Z,4.78
2022-11-14T10:04:48.228Z,4.84
2022-11-14T10:07:14.703Z,5.03
2022-11-14T10:09:49.378Z,5.09
2022-11-14T10:12:35.680Z,5.25
2022-11-14T10:15:41.001Z,5.22
2022-11-14T10:18:39.570Z,5.19
2022-11-14T10:21:44.646Z,5.34
2022-11-14T10:24:39.357Z,5.19
2022-11-14T10:27:10.687Z,5.21
2022-11-14T10:29:38.187Z,5.39
2022-11-14T10:32:28.463Z,5.43
2022-11-14T10:35:14.638Z,5.50
2022-11-14T10:38:03.312Z,5.52
2022-11-14T10:40:54.461Z,5.48
2022-11-14T10:43:23.867Z,5.52
2022-11-14T10:46:07.810Z,5.25
2022-11-14T10:48:39.929Z,5.21
2022-11-14T10:51:37.681Z,5.21
2022-11-14T10:54:10.245Z,5.41
2022-11-14T10:56:50.878Z,5.54
2022-11-14T10:59:17.426Z,5.56
2022-11-14T11:01:50.884Z,5.39
2022-11-14T11:04:27.991Z,5.35
2022-11-14T11:07:36.555Z,5.35
2022-11-14T11:10:22.628Z,5.43
2022-11-14T11:12:54.009Z,5.43
2022-11-14T11:15:27.956Z,5.33
2022-11-14T11:17:57.194Z,5.36
2022-11-14T11:20:23.619Z,5.51
2022-11-14T11:23:03.428Z,5.41
2022-11-14T11:25:33.000Z,5.41
2022-11-14T11:28:11.382Z,5.35
2022-11-14T11:30:38.673Z,5.28
2022-11-14T11:33:20.950Z,5.22
2022-11-14T11:35:53.270Z,5.32
2022-11-14T11:38:21.725Z,5.25
2022-11-14T11:40:52.556Z,5.22
2022-11-14T11:43:43.120Z,5.33
2022-11-14T11:46:22.936Z,5.43
2022-11-14T11:48:56.388Z,5.38
2022-11-14T11:51:26.801Z,5.35
2022-11-14T11:54:10.823Z,5.50
2022-11-14T11:56:38.642Z,5.60
2022-11-14T11:59:33.608Z,5.64
2022-11-14T12:02:17.465Z,5.83
2022-11-14T12:04:46.885Z,5.94
2022-11-14T12:07:20.332Z,6.00
2022-11-14T12:10:09.726Z,6.15
2022-11-14T12:12:45.416Z,6.15
2022-11-14T12:15:31.366Z,6.07
2022-11-14T12:18:21.483Z,6.09
2022-11-14T12:20:54.489Z,6.26
2022-11-14T12:24:02.521Z,6.36
2022-11-14T12:26:35.067Z,6.43
2022-11-14T12:29:13.204Z,6.44
2022-11-14T12:31:41.210Z,6.40
2022-11-14T12:34:22.457Z,6.46
2022-11-14T12:36:49.237Z,6.34
2022-11-14T12:39:54.917Z,6.36
2022-11-14T12:42:21.975Z,6.43
2022-11-14T12:44:48.523Z,6.40
2022-11-14T12:47:26.017Z,6.40
2022-11-14T12:49:52.718Z,6.37
2022-11-14T12:52:40.349Z,6.48
2022-11-14T12:55:22.437Z,6.69
2022-11-14T12:57:55.679Z,6.77
2022-11-14T13:00:22.490Z,6.92
2022-11-14T13:03:10.499Z,7.03
2022-11-14T13:05:46.715Z,7.12
2022-11-14T13:08:28.936Z,7.19
2022-11-14T13:10:55.277Z,7.27
2022-11-14T13:13:41.332Z,7.36
2022-11-14T13:16:42.782Z,7.44
2022-11-14T13:19:30.625Z,7.45
2022-11-14T13:22:12.041Z,7.51
2022-11-14T13:25:03.541Z,7.54
2022-11-14T13:28:05.189Z,7.58
2022-11-14T13:30:59.158Z,7.51
2022-11-14T13:33:59.090Z,7.54
2022-11-14T13:36:37.792Z,7.51
2022-11-14T13:39:18.219Z,7.57
2022-11-14T13:41:59.879Z,7.51
2022-11-14T13:44:47.992Z,7.48
2022-11-14T13:47:19.728Z,7.50
2022-11-14T13:50:01.198Z,7.55
2022-11-14T13:52:36.630Z,7.57
2022-11-14T13:55:03.341Z,7.60
2022-11-14T13:57:32.697Z,7.62
2022-11-14T14:00:08.495Z,7.60
2022-11-14T14:02:46.590Z,7.61
2022-11-14T14:05:32.249Z,7.59
2022-11-14T14:08:14.002Z,7.59
2022-11-14T14:11:03.544Z,7.60
2022-11-14T14:13:55.304Z,7.54
2022-11-14T14:16:44.549Z,7.54
2022-11-14T14:19:36.213Z,7.48
2022-11-14T14:22:11.849Z,7.44
2022-11-14T14:25:03.277Z,7.46
2022-11-14T14:27:42.215Z,7.47
2022-11-14T14:30:17.684Z,7.45
2022-11-14T14:32:44.381Z,7.46
2022-11-14T14:35:25.866Z,7.42
2022-11-14T14:37:53.875Z,7.34
2022-11-14T14:40:36.052Z,7.32
2022-11-14T14:43:05.045Z,7.31
2022-11-14T14:45:45.576Z,7.27
2022-11-14T14:48:21.277Z,7.27
2022-11-14T14:50:50.621Z,7.23
2022-11-14T14:53:23.543Z,7.23
2022-11-14T14:56:21.007Z,7.23
2022-11-14T14:58:47.555Z,7.22
2022-11-14T15:01:23.633Z,7.24
2022-11-14T15:03:56.668Z,7.12
2022-11-14T15:06:33.232Z,7.09
2022-11-14T15:09:06.464Z,7.07
2022-11-14T15:11:34.330Z,7.06
2022-11-14T15:14:02.465Z,6.94
2022-11-14T15:16:33.094Z,6.95
2022-11-14T15:19:00.776Z,6.81
2022-11-14T15:21:29.215Z,6.75
2022-11-14T15:24:02.432Z,6.69
2022-11-14T15:26:31.464Z,6.66
2022-11-14T15:29:21.684Z,6.68
2022-11-14T15:32:04.661Z,6.55
2022-11-14T15:34:37.325Z,6.51
2022-11-14T15:37:18.922Z,6.61
2022-11-14T15:39:46.729Z,6.57
2022-11-14T15:42:27.898Z,6.56
2022-11-14T15:44:55.428Z,6.60
2022-11-14T15:47:30.124Z,6.59
2022-11-14T15:50:03.109Z,6.58
2022-11-14T15:52:37.427Z,6.39
2022-11-14T15:55:09.434Z,6.32
2022-11-14T15:57:36.483Z,6.40
2022-11-14T16:00:04.085Z,6.36
2022-11-14T16:02:34.641Z,6.38
2022-11-14T16:05:03.956Z,6.29
2022-11-14T16:07:30.836Z,6.12
2022-11-14T16:09:57.490Z,6.00
2022-11-14T16:12:23.953Z,6.02
2022-11-14T16:14:50.590Z,6.11
2022-11-14T16:17:17.898Z,6.23
2022-11-14T16:19:44.583Z,6.15
2022-11-14T16:22:17.401Z,6.14
2022-11-14T16:24:44.165Z,6.19
2022-11-14T16:27:13.702Z,6.20
2022-11-14T16:29:40.220Z,6.22
2022-11-14T16:32:10.267Z,6.18
2022-11-14T16:34:36.740Z,6.06
2022-11-14T16:37:03.523Z,6.08
2022-11-14T16:39:30.459Z,6.01
2022-11-14T16:42:02.620Z,6.01
2022-11-14T16:44:29.245Z,5.92
2022-11-14T16:46:55.986Z,5.84
2022-11-14T16:49:22.764Z,5.78
2022-11-14T16:51:51.023Z,5.57
2022-11-14T16:54:19.515Z,5.49
2022-11-14T16:56:46.289Z,5.63
2022-11-14T16:59:12.983Z,5.74
2022-11-14T17:01:39.768Z,5.87
2022-11-14T17:04:06.504Z,5.99
2022-11-14T17:06:33.551Z,6.00
2022-11-14T17:09:01.034Z,6.03
2022-11-14T17:11:28.351Z,6.09
2022-11-14T17:13:56.577Z,6.11
2022-11-14T17:16:23.916Z,6.04
2022-11-14T17:18:54.128Z,5.98
2022-11-14T17:21:21.401Z,5.91
2022-11-14T17:23:55.457Z,5.84
2022-11-14T17:26:21.986Z,5.89
2022-11-14T17:28:48.554Z,5.71
2022-11-14T17:31:16.199Z,5.72
2022-11-14T17:33:42.688Z,5.78
2022-11-14T17:36:10.969Z,5.80
2022-11-14T17:38:38.269Z,5.98
2022-11-14T17:41:07.949Z,5.87
2022-11-14T17:43:39.182Z,5.95
2022-11-14T17:46:12.587Z,5.95
2022-11-14T17:48:42.266Z,5.95
2022-11-14T17:51:12.339Z,5.95
2022-11-14T17:53:39.346Z,5.96
2022-11-14T17:56:07.699Z,5.84
2022-11-14T17:58:34.820Z,5.84
2022-11-14T18:01:01.503Z,5.82
2022-11-14T18:03:28.321Z,5.85
2022-11-14T18:06:08.123Z,5.86
2022-11-14T18:08:35.434Z,5.74
2022-11-14T18:11:03.403Z,5.67
2022-11-14T18:13:29.940Z,5.77
2022-11-14T18:16:02.205Z,5.85
2022-11-14T18:18:31.478Z,6.16
2022-11-14T18:20:59.148Z,6.42
2022-11-14T18:23:25.639Z,6.36
2022-11-14T18:25:52.239Z,6.33
2022-11-14T18:28:18.689Z,6.33
2022-11-14T18:30:55.426Z,6.29
2022-11-14T18:33:22.971Z,6.22
2022-11-14T18:35:57.394Z,6.22
2022-11-14T18:38:23.888Z,6.13
2022-11-14T18:40:55.878Z,6.14
2022-11-14T18:43:23.943Z,6.22
2022-11-14T18:45:50.935Z,6.53
2022-11-14T18:48:17.453Z,6.70
2022-11-14T18:50:44.010Z,6.76
2022-11-14T18:53:10.504Z,6.64
2022-11-14T18:55:40.759Z,6.53
2022-11-14T18:58:08.076Z,6.49
2022-11-14T19:00:35.235Z,6.45
2022-11-14T19:03:06.022Z,6.40
2022-11-14T19:05:36.408Z,6.37
2022-11-14T19:08:03.302Z,6.42
2022-11-14T19:10:29.791Z,6.36
2022-11-14T19:12:56.275Z,6.29
2022-11-14T19:15:26.243Z,6.19
2022-11-14T19:17:52.760Z,6.14
2022-11-14T19:20:19.332Z,6.12
2022-11-14T19:22:45.872Z,6.07
2022-11-14T19:25:12.384Z,6.06
2022-11-14T19:27:39.914Z,6.02
2022-11-14T19:30:07.013Z,6.02
2022-11-14T19:32:34.380Z,5.97
2022-11-14T19:35:00.959Z,5.98
2022-11-14T19:37:28.324Z,5.97
2022-11-14T19:39:55.582Z,5.98
2022-11-14T19:42:22.142Z,5.96
2022-11-14T19:44:48.757Z,5.99
2022-11-14T19:47:15.205Z,5.96
2022-11-14T19:49:42.768Z,6.00
2022-11-14T19:52:09.280Z,6.05
2022-11-14T19:54:36.153Z,6.14
2022-11-14T19:57:02.616Z,6.18
2022-11-14T19:59:29.326Z,6.22
2022-11-14T20:01:55.938Z,6.28
2022-11-14T20:04:22.866Z,6.41
2022-11-14T20:06:49.436Z,6.48
2022-11-14T20:09:16.491Z,6.50
2022-11-14T20:11:44.941Z,6.58
2022-11-14T20:14:12.273Z,6.64
2022-11-14T20:16:38.978Z,6.60
2022-11-14T20:19:05.619Z,6.57
2022-11-14T20:21:33.929Z,6.57
2022-11-14T20:24:00.543Z,6.61
2022-11-14T20:26:27.699Z,6.64
2022-11-14T20:28:54.746Z,6.69
2022-11-14T20:31:29.409Z,6.71
2022-11-14T20:33:56.340Z,6.70
2022-11-14T20:36:26.107Z,6.62
2022-11-14T20:38:53.783Z,6.61
2022-11-14T20:41:21.132Z,6.63
2022-11-14T20:43:48.288Z,6.63
2022-11-14T20:46:19.861Z,6.52
2022-11-14T20:48:46.797Z,6.45
2022-11-14T20:51:31.406Z,6.42
2022-11-14T20:53:57.967Z,6.43
2022-11-14T20:56:24.805Z,6.45
2022-11-14T20:58:54.136Z,6.44
2022-11-14T21:01:21.577Z,6.48
2022-11-14T21:03:52.127Z,6.51
2022-11-14T21:06:18.638Z,6.60
2022-11-14T21:08:45.249Z,6.76
2022-11-14T21:11:18.262Z,6.70
2022-11-14T21:14:00.228Z,6.70
2022-11-14T21:16:38.821Z,6.74
2022-11-14T21:19:07.189Z,6.82
2022-11-14T21:21:38.152Z,6.82
2022-11-14T21:24:05.335Z,6.93
2022-11-14T21:26:34.177Z,7.16
2022-11-14T21:29:04.030Z,7.18
2022-11-14T21:31:38.913Z,7.16
2022-11-14T21:34:17.938Z,7.15
2022-11-14T21:36:46.348Z,7.43
2022-11-14T21:39:17.727Z,7.88
2022-11-14T21:41:49.240Z,7.90
2022-11-14T21:44:17.308Z,8.01
2022-11-14T21:46:47.053Z,8.30
2022-11-14T21:49:13.574Z,8.60
2022-11-14T21:51:40.140Z,8.86
2022-11-14T21:54:06.717Z,9.00
2022-11-14T21:56:35.914Z,9.03
2022-11-14T21:59:15.840Z,9.13
2022-11-14T22:02:07.145Z,9.26
2022-11-14T22:04:34.288Z,9.19
2022-11-14T22:07:07.204Z,9.16
2022-11-14T22:09:34.486Z,9.14
2022-11-14T22:12:01.115Z,9.18
2022-11-14T22:14:30.457Z,9.19
2022-11-14T22:16:58.011Z,9.16
2022-11-14T22:19:27.620Z,9.20
2022-11-14T22:21:54.406Z,9.41
2022-11-14T22:24:20.959Z,9.47
2022-11-14T22:26:47.436Z,9.57
2022-11-14T22:29:13.968Z,9.56
2022-11-14T22:31:40.437Z,9.60
2022-11-14T22:34:07.014Z,9.64
2022-11-14T22:36:33.748Z,9.59
2022-11-14T22:39:00.640Z,9.67
2022-11-14T22:41:32.737Z,9.66
2022-11-14T22:44:00.480Z,9.70
2022-11-14T22:46:33.201Z,9.68
2022-11-14T22:48:59.720Z,9.79
2022-11-14T22:51:27.346Z,9.94
2022-11-14T22:53:56.415Z,9.91
2022-11-14T22:56:26.761Z,9.91
2022-11-14T22:58:53.299Z,10.04
2022-11-14T23:01:21.073Z,10.06
2022-11-14T23:03:48.548Z,10.13
2022-11-14T23:06:17.328Z,10.19
2022-11-14T23:08:44.491Z,10.36
2022-11-14T23:11:20.214Z,10.28
2022-11-14T23:13:52.458Z,10.04
2022-11-14T23:16:24.733Z,10.16
2022-11-14T23:18:54.712Z,10.22
2022-11-14T23:21:30.621Z,10.12
2022-11-14T23:23:59.031Z,10.18
2022-11-14T23:26:26.544Z,10.26
2022-11-14T23:28:56.771Z,10.24
2022-11-14T23:31:24.759Z,10.13
2022-11-14T23:33:53.703Z,10.13
2022-11-14T23:36:20.615Z,10.08
2022-11-14T23:38:47.612Z,9.95
2022-11-14T23:41:17.390Z,10.10
2022-11-14T23:43:44.014Z,10.22
2022-11-14T23:46:10.475Z,10.16
2022-11-14T23:48:37.009Z,10.29
2022-11-14T23:51:03.860Z,10.33
2022-11-14T23:53:30.805Z,10.33
2022-11-14T23:55:59.805Z,10.29
2022-11-14T23:58:28.914Z,10.29
